createdAt,value
2018-11-27T00:00:26.187Z,3.50
2018-11-27T00:02:58.223Z,3.60
2018-11-27T00:05:27.233Z,3.50
2018-11-27T00:07:55.797Z,3.60
2018-11-27T00:10:24.448Z,3.50
2018-11-27T00:12:53.071Z,3.50
2018-11-27T00:15:21.653Z,3.50
2018-11-27T00:17:50.183Z,3.50
2018-11-27T00:20:18.861Z,3.50
2018-11-27T00:22:48.037Z,3.50
2018-11-27T00:25:17.557Z,3.50
2018-11-27T00:27:46.344Z,3.50
2018-11-27T00:30:16.418Z,3.50
2018-11-27T00:32:44.950Z,3.50
2018-11-27T00:35:15.914Z,3.50
2018-11-27T00:37:44.428Z,3.50
2018-11-27T00:40:14.391Z,3.50
2018-11-27T00:42:42.962Z,3.50
2018-11-27T00:45:12.645Z,3.50
2018-11-27T00:47:41.811Z,3.40
2018-11-27T00:50:21.303Z,3.40
2018-11-27T00:52:49.828Z,3.50
2018-11-27T00:55:19.389Z,3.50
2018-11-27T00:57:49.285Z,3.40
2018-11-27T01:00:19.135Z,3.40
2018-11-27T01:02:47.920Z,3.40
2018-11-27T01:05:17.730Z,3.30
2018-11-27T01:07:46.584Z,3.40
2018-11-27T01:10:25.449Z,3.40
2018-11-27T01:12:54.109Z,3.40
2018-11-27T01:15:22.895Z,3.40
2018-11-27T01:17:53.901Z,3.40
2018-11-27T01:20:23.162Z,3.40
2018-11-27T01:22:51.741Z,3.40
2018-11-27T01:25:20.289Z,3.40
2018-11-27T01:27:48.870Z,3.30
2018-11-27T01:30:18.630Z,3.40
2018-11-27T01:32:47.611Z,3.40
2018-11-27T01:35:17.859Z,3.40
2018-11-27T01:37:47.244Z,3.40
2018-11-27T01:40:19.923Z,3.40
2018-11-27T01:42:50.488Z,3.30
2018-11-27T01:45:20.153Z,3.40
2018-11-27T01:47:48.977Z,3.30
2018-11-27T01:50:18.526Z,3.40
2018-11-27T01:52:47.355Z,3.30
2018-11-27T01:55:18.989Z,3.30
2018-11-27T01:57:47.578Z,3.40
2018-11-27T02:00:20.837Z,3.30
2018-11-27T02:02:49.560Z,3.30
2018-11-27T02:05:18.131Z,3.30
2018-11-27T02:07:46.685Z,3.30
2018-11-27T02:10:15.236Z,3.30
2018-11-27T02:12:45.183Z,3.30
2018-11-27T02:15:17.057Z,3.30
2018-11-27T02:17:45.608Z,3.30
2018-11-27T02:20:14.170Z,3.30
2018-11-27T02:22:42.747Z,3.30
2018-11-27T02:25:19.809Z,3.30
2018-11-27T02:27:48.348Z,3.30
2018-11-27T02:30:18.013Z,3.30
2018-11-27T02:32:46.668Z,3.30
2018-11-27T02:35:16.602Z,3.20
2018-11-27T02:37:45.902Z,3.30
2018-11-27T02:40:15.511Z,3.30
2018-11-27T02:42:44.123Z,3.20
2018-11-27T02:45:13.937Z,3.30
2018-11-27T02:47:42.949Z,3.20
2018-11-27T02:50:12.459Z,3.20
2018-11-27T02:52:40.986Z,3.20
2018-11-27T02:55:18.530Z,3.20
2018-11-27T02:57:47.156Z,3.20
2018-11-27T03:00:20.747Z,3.20
2018-11-27T03:02:49.348Z,3.20
2018-11-27T03:05:32.088Z,3.20
2018-11-27T03:08:00.720Z,3.20
2018-11-27T03:10:29.236Z,3.20
2018-11-27T03:12:57.789Z,3.20
2018-11-27T03:15:26.417Z,3.20
2018-11-27T03:17:54.962Z,3.20
2018-11-27T03:20:23.495Z,3.20
2018-11-27T03:22:52.015Z,3.20
2018-11-27T03:25:21.694Z,3.20
2018-11-27T03:27:51.226Z,3.20
2018-11-27T03:30:21.703Z,3.20
2018-11-27T03:32:50.278Z,3.20
2018-11-27T03:35:19.794Z,3.20
2018-11-27T03:37:48.865Z,3.20
2018-11-27T03:40:19.649Z,3.20
2018-11-27T03:42:48.261Z,3.20
2018-11-27T03:45:17.252Z,3.10
2018-11-27T03:47:45.897Z,3.20
2018-11-27T03:50:29.891Z,3.20
2018-11-27T03:52:58.440Z,3.20
2018-11-27T03:55:27.003Z,3.20
2018-11-27T03:57:55.549Z,3.10
2018-11-27T04:00:26.941Z,3.10
2018-11-27T04:03:08.649Z,3.10
2018-11-27T04:05:37.422Z,3.10
2018-11-27T04:08:07.789Z,3.10
2018-11-27T04:10:36.604Z,3.10
2018-11-27T04:13:05.787Z,3.10
2018-11-27T04:15:34.535Z,3.10
2018-11-27T04:18:03.136Z,3.10
2018-11-27T04:20:32.377Z,3.00
2018-11-27T04:23:00.340Z,3.10
2018-11-27T04:25:28.920Z,3.10
2018-11-27T04:27:57.493Z,3.10
2018-11-27T04:30:26.073Z,3.10
2018-11-27T04:32:54.615Z,3.10
2018-11-27T04:35:23.308Z,3.10
2018-11-27T04:37:51.854Z,3.10
2018-11-27T04:40:22.309Z,3.10
2018-11-27T04:42:51.505Z,3.00
2018-11-27T04:45:22.522Z,3.10
2018-11-27T04:47:51.084Z,3.10
2018-11-27T04:50:20.009Z,3.10
2018-11-27T04:52:48.659Z,3.10
2018-11-27T04:55:19.799Z,3.10
2018-11-27T04:57:48.100Z,3.10
2018-11-27T05:00:19.317Z,3.10
2018-11-27T05:02:48.037Z,3.10
2018-11-27T05:05:16.765Z,3.00
2018-11-27T05:07:45.301Z,3.00
2018-11-27T05:10:15.592Z,3.10
2018-11-27T05:12:44.480Z,3.00
2018-11-27T05:15:17.044Z,3.00
2018-11-27T05:17:48.174Z,3.10
2018-11-27T05:20:15.527Z,3.00
2018-11-27T05:22:44.138Z,3.00
2018-11-27T05:25:13.930Z,3.00
2018-11-27T05:27:44.942Z,3.00
2018-11-27T05:30:17.625Z,3.00
2018-11-27T05:32:46.165Z,3.00
2018-11-27T05:35:16.825Z,3.00
2018-11-27T05:37:46.659Z,3.00
2018-11-27T05:40:18.410Z,3.00
2018-11-27T05:42:47.719Z,2.90
2018-11-27T05:45:18.402Z,3.00
2018-11-27T05:47:46.976Z,3.00
2018-11-27T05:50:16.716Z,3.00
2018-11-27T05:52:46.135Z,3.00
2018-11-27T05:55:15.417Z,3.00
2018-11-27T05:57:45.369Z,3.00
2018-11-27T06:00:18.081Z,2.90
2018-11-27T06:02:47.537Z,2.90
2018-11-27T06:05:18.296Z,2.90
2018-11-27T06:07:47.745Z,3.00
2018-11-27T06:10:17.430Z,3.00
2018-11-27T06:12:45.985Z,2.90
2018-11-27T06:15:15.719Z,3.00
2018-11-27T06:17:44.545Z,3.00
2018-11-27T06:20:15.197Z,2.90
2018-11-27T06:22:43.787Z,3.00
2018-11-27T06:25:13.996Z,3.00
2018-11-27T06:27:42.584Z,2.90
2018-11-27T06:30:16.473Z,2.90
2018-11-27T06:32:45.047Z,2.90
2018-11-27T06:35:16.118Z,2.90
2018-11-27T06:37:44.716Z,2.90
2018-11-27T06:40:21.390Z,2.90
2018-11-27T06:42:50.191Z,2.80
2018-11-27T06:45:19.703Z,2.90
2018-11-27T06:47:49.513Z,2.90
2018-11-27T06:50:19.799Z,2.90
2018-11-27T06:52:48.381Z,2.90
2018-11-27T06:55:19.251Z,2.90
2018-11-27T06:57:47.914Z,2.90
2018-11-27T07:00:18.536Z,2.90
2018-11-27T07:02:47.130Z,2.90
2018-11-27T07:05:15.843Z,2.90
2018-11-27T07:07:44.629Z,2.90
2018-11-27T07:10:20.320Z,2.90
2018-11-27T07:12:50.180Z,2.90
2018-11-27T07:15:20.067Z,2.90
2018-11-27T07:17:48.646Z,2.90
2018-11-27T07:20:17.205Z,2.90
2018-11-27T07:22:45.747Z,2.90
2018-11-27T07:25:16.320Z,2.80
2018-11-27T07:27:46.123Z,2.50
2018-11-27T07:30:21.031Z,2.30
2018-11-27T07:32:49.691Z,2.20
2018-11-27T07:35:18.718Z,2.10
2018-11-27T07:37:47.659Z,2.10
2018-11-27T07:40:32.584Z,2.10
2018-11-27T07:43:03.626Z,2.10
2018-11-27T07:45:32.276Z,1.90
2018-11-27T07:48:00.837Z,2.10
2018-11-27T07:50:29.477Z,2.10
2018-11-27T07:52:58.068Z,2.20
2018-11-27T07:55:26.640Z,2.20
2018-11-27T07:57:55.807Z,2.20
2018-11-27T08:00:25.963Z,2.20
2018-11-27T08:02:56.675Z,2.20
2018-11-27T08:05:29.875Z,2.20
2018-11-27T08:07:58.526Z,2.20
2018-11-27T08:10:28.840Z,2.10
2018-11-27T08:12:58.217Z,2.10
2018-11-27T08:15:32.841Z,2.20
2018-11-27T08:18:01.915Z,2.20
2018-11-27T08:20:31.922Z,2.20
2018-11-27T08:23:00.833Z,2.10
2018-11-27T08:25:29.505Z,2.10
2018-11-27T08:27:58.073Z,2.10
2018-11-27T08:30:26.708Z,2.10
2018-11-27T08:32:56.139Z,2.10
2018-11-27T08:35:26.464Z,2.00
2018-11-27T08:37:56.354Z,2.10
2018-11-27T08:40:26.047Z,2.10
2018-11-27T08:42:54.782Z,2.10
2018-11-27T08:45:25.146Z,2.10
2018-11-27T08:47:54.695Z,2.10
2018-11-27T08:50:25.516Z,2.10
2018-11-27T08:53:02.749Z,2.10
2018-11-27T08:55:41.184Z,2.10
2018-11-27T08:58:15.944Z,2.10
2018-11-27T09:00:44.631Z,2.00
2018-11-27T09:03:13.245Z,2.10
2018-11-27T09:05:41.984Z,2.10
2018-11-27T09:08:10.679Z,2.10
2018-11-27T09:10:39.263Z,2.10
2018-11-27T09:13:07.827Z,2.10
2018-11-27T09:15:36.828Z,2.20
2018-11-27T09:18:17.172Z,2.20
2018-11-27T09:20:45.735Z,2.20
2018-11-27T09:23:14.300Z,2.30
2018-11-27T09:25:42.991Z,2.20
2018-11-27T09:28:11.547Z,2.30
2018-11-27T09:30:40.200Z,2.30
2018-11-27T09:33:09.745Z,2.30
2018-11-27T09:35:38.464Z,2.20
2018-11-27T09:38:07.853Z,2.30
2018-11-27T09:40:36.910Z,2.30
2018-11-27T09:43:06.088Z,2.30
2018-11-27T09:45:34.772Z,2.40
2018-11-27T09:48:03.360Z,2.40
2018-11-27T09:50:31.899Z,2.40
2018-11-27T09:53:00.499Z,2.50
2018-11-27T09:55:29.097Z,2.50
2018-11-27T09:57:59.334Z,2.50
2018-11-27T10:00:27.807Z,2.50
2018-11-27T10:02:58.662Z,2.60
2018-11-27T10:05:27.308Z,2.70
2018-11-27T10:07:55.868Z,2.60
2018-11-27T10:10:25.355Z,2.60
2018-11-27T10:12:54.133Z,2.60
2018-11-27T10:15:23.886Z,2.60
2018-11-27T10:17:53.837Z,2.70
2018-11-27T10:20:23.663Z,2.70
2018-11-27T10:22:52.200Z,2.80
2018-11-27T10:25:20.744Z,2.90
2018-11-27T10:27:49.285Z,2.90
2018-11-27T10:30:22.075Z,3.00
2018-11-27T10:32:51.706Z,3.00
2018-11-27T10:35:23.472Z,3.10
2018-11-27T10:37:52.050Z,3.10
2018-11-27T10:40:20.665Z,3.10
2018-11-27T10:42:49.247Z,3.10
2018-11-27T10:45:19.863Z,3.20
2018-11-27T10:47:49.704Z,3.20
2018-11-27T10:50:18.737Z,3.20
2018-11-27T10:52:48.660Z,3.10
2018-11-27T10:55:18.055Z,3.20
2018-11-27T10:57:46.877Z,3.20
2018-11-27T11:00:22.931Z,3.20
2018-11-27T11:02:57.078Z,3.20
2018-11-27T11:05:28.719Z,3.20
2018-11-27T11:07:57.508Z,3.20
2018-11-27T11:10:26.123Z,3.20
2018-11-27T11:12:55.409Z,3.30
2018-11-27T11:15:23.957Z,3.20
2018-11-27T11:17:52.550Z,3.30
2018-11-27T11:20:21.704Z,3.30
2018-11-27T11:22:50.290Z,3.30
2018-11-27T11:25:20.970Z,3.30
2018-11-27T11:27:52.469Z,3.30
2018-11-27T11:30:21.972Z,3.30
2018-11-27T11:32:50.701Z,3.30
2018-11-27T11:35:19.277Z,3.30
2018-11-27T11:37:48.048Z,3.30
2018-11-27T11:40:22.953Z,3.30
2018-11-27T11:42:52.926Z,3.30
2018-11-27T11:45:25.278Z,3.30
2018-11-27T11:47:54.368Z,3.30
2018-11-27T11:50:25.153Z,3.40
2018-11-27T11:52:55.920Z,3.30
2018-11-27T11:55:24.460Z,3.30
2018-11-27T11:57:53.111Z,3.40
2018-11-27T12:00:25.754Z,3.30
2018-11-27T12:02:54.321Z,3.30
2018-11-27T12:05:25.138Z,3.40
2018-11-27T12:07:51.512Z,3.40
2018-11-27T12:10:20.063Z,3.30
2018-11-27T12:12:48.681Z,3.30
2018-11-27T12:15:19.351Z,3.30
2018-11-27T12:17:48.752Z,3.30
2018-11-27T12:20:18.532Z,3.30
2018-11-27T12:22:48.532Z,3.40
2018-11-27T12:25:17.175Z,3.40
2018-11-27T12:27:45.768Z,3.30
2018-11-27T12:30:22.709Z,3.40
2018-11-27T12:32:51.621Z,3.40
2018-11-27T12:35:20.992Z,3.40
2018-11-27T12:37:49.697Z,3.40
2018-11-27T12:40:21.299Z,3.40
2018-11-27T12:42:50.186Z,3.40
2018-11-27T12:45:24.653Z,3.40
2018-11-27T12:47:53.917Z,3.40
2018-11-27T12:50:25.011Z,3.40
2018-11-27T12:52:53.579Z,3.40
2018-11-27T12:55:23.373Z,3.40
2018-11-27T12:57:51.980Z,3.40
2018-11-27T13:00:24.537Z,3.40
2018-11-27T13:02:53.099Z,3.40
2018-11-27T13:05:24.164Z,3.40
2018-11-27T13:07:57.696Z,3.40
2018-11-27T13:10:26.199Z,3.40
2018-11-27T13:12:54.833Z,3.40
2018-11-27T13:15:23.368Z,3.40
2018-11-27T13:17:52.881Z,3.40
2018-11-27T13:20:21.720Z,3.40
2018-11-27T13:22:51.009Z,3.40
2018-11-27T13:25:20.967Z,3.50
2018-11-27T13:27:50.620Z,3.40
2018-11-27T13:30:24.316Z,3.40
2018-11-27T13:32:54.903Z,3.50
2018-11-27T13:35:23.571Z,3.40
2018-11-27T13:37:52.123Z,3.40
2018-11-27T13:40:20.620Z,3.40
2018-11-27T13:42:49.181Z,3.40
2018-11-27T13:45:17.721Z,3.40
2018-11-27T13:47:46.260Z,3.40
2018-11-27T13:50:16.263Z,3.40
2018-11-27T13:52:44.802Z,3.40
2018-11-27T13:55:15.813Z,3.40
2018-11-27T13:57:44.523Z,3.40
2018-11-27T14:00:14.566Z,3.40
2018-11-27T14:02:46.468Z,3.40
2018-11-27T14:05:16.714Z,3.40
2018-11-27T14:07:45.292Z,3.40
2018-11-27T14:10:14.115Z,3.40
2018-11-27T14:12:42.831Z,3.40
2018-11-27T14:15:21.307Z,3.40
2018-11-27T14:17:50.562Z,3.40
2018-11-27T14:20:19.172Z,3.40
2018-11-27T14:22:48.783Z,3.40
2018-11-27T14:25:18.123Z,3.40
2018-11-27T14:27:47.991Z,3.40
2018-11-27T14:30:18.947Z,3.50
2018-11-27T14:32:48.038Z,4.00
2018-11-27T14:35:17.669Z,4.60
2018-11-27T14:37:47.456Z,5.00
2018-11-27T14:40:19.136Z,5.30
2018-11-27T14:42:47.993Z,5.30
2018-11-27T14:45:18.796Z,5.40
2018-11-27T14:47:48.787Z,5.40
2018-11-27T14:50:17.415Z,5.50
2018-11-27T14:52:45.975Z,5.60
2018-11-27T14:55:17.787Z,5.60
2018-11-27T14:57:46.759Z,5.50
2018-11-27T15:00:16.992Z,5.60
2018-11-27T15:02:45.680Z,5.50
2018-11-27T15:05:15.979Z,5.50
2018-11-27T15:07:45.022Z,5.50
2018-11-27T15:10:14.097Z,5.60
2018-11-27T15:12:42.727Z,5.50
2018-11-27T15:15:12.666Z,5.50
2018-11-27T15:17:41.413Z,5.40
2018-11-27T15:20:14.639Z,5.40
2018-11-27T15:22:43.450Z,5.50
2018-11-27T15:25:12.318Z,5.40
2018-11-27T15:27:41.349Z,5.40
2018-11-27T15:30:12.846Z,5.40
2018-11-27T15:32:41.585Z,5.30
2018-11-27T15:35:11.231Z,5.30
2018-11-27T15:37:39.779Z,5.30
2018-11-27T15:40:17.492Z,5.30
2018-11-27T15:42:46.520Z,5.20
2018-11-27T15:45:22.666Z,5.20
2018-11-27T15:47:51.529Z,5.20
2018-11-27T15:50:20.433Z,5.20
2018-11-27T15:52:49.204Z,5.20
2018-11-27T15:55:23.235Z,5.20
2018-11-27T15:57:53.425Z,5.10
2018-11-27T16:00:22.501Z,5.10
2018-11-27T16:02:51.032Z,5.10
2018-11-27T16:05:19.687Z,5.10
2018-11-27T16:07:48.245Z,5.00
2018-11-27T16:10:18.427Z,5.00
2018-11-27T16:12:46.972Z,5.00
2018-11-27T16:15:16.823Z,5.00
2018-11-27T16:17:45.492Z,5.00
2018-11-27T16:20:15.292Z,5.00
2018-11-27T16:22:45.008Z,5.00
2018-11-27T16:25:14.944Z,4.90
2018-11-27T16:27:43.532Z,4.90
2018-11-27T16:30:22.007Z,4.90
2018-11-27T16:32:50.643Z,4.90
2018-11-27T16:35:19.245Z,4.80
2018-11-27T16:37:49.396Z,4.90
2018-11-27T16:40:19.853Z,4.90
2018-11-27T16:42:48.426Z,4.80
2018-11-27T16:45:18.371Z,4.80
2018-11-27T16:47:47.596Z,4.70
2018-11-27T16:50:17.888Z,4.70
2018-11-27T16:52:47.078Z,4.70
2018-11-27T16:55:17.213Z,4.70
2018-11-27T16:57:45.772Z,4.70
2018-11-27T17:00:20.412Z,4.60
2018-11-27T17:02:51.705Z,4.60
2018-11-27T17:05:20.295Z,4.60
2018-11-27T17:07:48.850Z,4.60
2018-11-27T17:10:19.048Z,4.60
2018-11-27T17:12:48.670Z,4.60
2018-11-27T17:15:18.522Z,4.60
2018-11-27T17:17:47.207Z,4.60
2018-11-27T17:20:27.698Z,4.60
2018-11-27T17:22:57.408Z,4.50
2018-11-27T17:25:26.082Z,4.50
2018-11-27T17:27:55.684Z,4.50
2018-11-27T17:30:27.130Z,4.50
2018-11-27T17:32:56.433Z,4.50
2018-11-27T17:35:25.737Z,4.50
2018-11-27T17:37:54.465Z,4.50
2018-11-27T17:40:23.043Z,4.50
2018-11-27T17:42:51.615Z,4.40
2018-11-27T17:45:20.136Z,4.40
2018-11-27T17:47:48.697Z,4.40
2018-11-27T17:50:17.859Z,4.40
2018-11-27T17:52:46.405Z,4.40
2018-11-27T17:55:15.142Z,4.40
2018-11-27T17:57:43.746Z,4.40
2018-11-27T18:00:15.724Z,4.40
2018-11-27T18:02:46.005Z,4.40
2018-11-27T18:05:15.116Z,4.40
2018-11-27T18:07:43.794Z,4.40
2018-11-27T18:10:12.579Z,4.30
2018-11-27T18:12:41.183Z,4.30
2018-11-27T18:15:20.723Z,4.40
2018-11-27T18:17:49.404Z,4.40
2018-11-27T18:20:17.951Z,4.30
2018-11-27T18:22:46.530Z,4.30
2018-11-27T18:25:16.247Z,4.30
2018-11-27T18:27:46.516Z,4.30
2018-11-27T18:30:16.145Z,4.30
2018-11-27T18:32:44.693Z,4.30
2018-11-27T18:35:14.528Z,4.30
2018-11-27T18:37:43.286Z,4.30
2018-11-27T18:40:13.809Z,4.30
2018-11-27T18:42:42.818Z,4.20
2018-11-27T18:45:12.826Z,4.30
2018-11-27T18:47:41.467Z,4.20
2018-11-27T18:50:11.026Z,4.20
2018-11-27T18:52:39.701Z,4.20
2018-11-27T18:55:12.511Z,4.20
2018-11-27T18:57:41.831Z,4.20
2018-11-27T19:00:41.472Z,4.20
2018-11-27T19:03:10.019Z,4.10
2018-11-27T19:05:38.562Z,4.10
2018-11-27T19:08:07.354Z,4.20
2018-11-27T19:10:35.949Z,4.10
2018-11-27T19:13:05.387Z,4.10
2018-11-27T19:15:36.612Z,4.10
2018-11-27T19:18:15.004Z,4.10
2018-11-27T19:20:43.765Z,4.20
2018-11-27T19:23:12.314Z,4.10
2018-11-27T19:25:40.884Z,4.10
2018-11-27T19:28:09.704Z,4.10
2018-11-27T19:30:38.333Z,4.10
2018-11-27T19:33:07.504Z,4.00
2018-11-27T19:35:36.128Z,4.10
2018-11-27T19:38:05.861Z,4.00
2018-11-27T19:40:37.255Z,4.00
2018-11-27T19:43:06.267Z,4.00
2018-11-27T19:45:36.009Z,4.00
2018-11-27T19:48:05.216Z,4.00
2018-11-27T19:50:34.069Z,3.90
2018-11-27T19:53:02.855Z,3.90
2018-11-27T19:55:31.477Z,3.90
2018-11-27T19:58:00.034Z,3.90
2018-11-27T20:00:29.588Z,3.90
2018-11-27T20:02:58.137Z,4.00
2018-11-27T20:05:28.041Z,3.90
2018-11-27T20:07:57.403Z,3.90
2018-11-27T20:10:26.034Z,3.90
2018-11-27T20:12:54.536Z,3.90
2018-11-27T20:15:24.862Z,3.90
2018-11-27T20:17:54.005Z,3.90
2018-11-27T20:20:23.869Z,3.80
2018-11-27T20:22:52.920Z,3.80
2018-11-27T20:25:22.477Z,3.80
2018-11-27T20:27:51.797Z,3.80
2018-11-27T20:30:23.560Z,3.80
2018-11-27T20:32:56.163Z,3.80
2018-11-27T20:35:24.840Z,3.80
2018-11-27T20:37:54.216Z,3.80
2018-11-27T20:40:22.744Z,3.80
2018-11-27T20:42:51.237Z,3.80
2018-11-27T20:45:21.509Z,3.80
2018-11-27T20:47:52.346Z,3.70
2018-11-27T20:50:21.883Z,3.70
2018-11-27T20:52:50.440Z,3.70
2018-11-27T20:55:19.465Z,3.70
2018-11-27T20:57:49.676Z,3.70
2018-11-27T21:00:22.904Z,3.70
2018-11-27T21:02:54.006Z,3.70
2018-11-27T21:05:22.651Z,3.60
2018-11-27T21:07:51.178Z,3.70
2018-11-27T21:10:19.737Z,3.70
2018-11-27T21:12:48.350Z,3.70
2018-11-27T21:15:18.333Z,3.60
2018-11-27T21:17:46.920Z,3.70
2018-11-27T21:20:16.587Z,3.60
2018-11-27T21:22:45.472Z,3.70
2018-11-27T21:25:17.355Z,3.60
2018-11-27T21:27:48.565Z,3.60
2018-11-27T21:30:18.116Z,3.60
2018-11-27T21:32:47.121Z,3.60
2018-11-27T21:35:17.501Z,3.60
2018-11-27T21:37:46.096Z,3.60
2018-11-27T21:40:15.856Z,3.60
2018-11-27T21:42:44.770Z,3.60
2018-11-27T21:45:16.737Z,3.50
2018-11-27T21:47:45.845Z,3.50
2018-11-27T21:50:15.774Z,3.50
2018-11-27T21:52:44.856Z,3.50
2018-11-27T21:55:14.480Z,3.50
2018-11-27T21:57:43.233Z,3.50
2018-11-27T22:00:14.073Z,3.50
2018-11-27T22:02:42.693Z,3.40
2018-11-27T22:05:12.180Z,3.40
2018-11-27T22:07:40.842Z,3.40
2018-11-27T22:10:15.520Z,3.40
2018-11-27T22:12:46.100Z,3.40
2018-11-27T22:15:18.468Z,3.40
2018-11-27T22:17:46.982Z,3.40
2018-11-27T22:20:21.017Z,3.40
2018-11-27T22:22:44.135Z,3.40
2018-11-27T22:25:13.044Z,3.40
2018-11-27T22:27:41.551Z,3.40
2018-11-27T22:30:12.588Z,3.30
2018-11-27T22:32:42.131Z,3.30
2018-11-27T22:35:11.217Z,3.30
2018-11-27T22:37:39.709Z,3.30
2018-11-27T22:40:10.108Z,3.30
2018-11-27T22:42:38.843Z,3.30
2018-11-27T22:45:11.705Z,3.30
2018-11-27T22:47:40.213Z,3.30
2018-11-27T22:50:15.190Z,3.20
2018-11-27T22:52:43.731Z,3.20
2018-11-27T22:55:12.659Z,3.20
2018-11-27T22:57:41.629Z,3.20
2018-11-27T23:00:21.404Z,3.20
2018-11-27T23:02:50.016Z,3.20
2018-11-27T23:05:20.021Z,3.20
2018-11-27T23:07:48.503Z,3.10
2018-11-27T23:10:17.038Z,3.20
2018-11-27T23:12:46.131Z,3.10
2018-11-27T23:15:17.937Z,3.10
2018-11-27T23:17:46.633Z,3.00
2018-11-27T23:20:16.176Z,3.00
2018-11-27T23:22:44.714Z,3.10
2018-11-27T23:25:14.332Z,3.00
2018-11-27T23:27:42.979Z,3.00
2018-11-27T23:30:14.681Z,3.00
2018-11-27T23:32:43.244Z,3.00
2018-11-27T23:35:11.859Z,2.90
2018-11-27T23:37:40.393Z,2.90
2018-11-27T23:40:10.943Z,2.90
2018-11-27T23:42:39.888Z,2.90
2018-11-27T23:45:12.488Z,2.90
2018-11-27T23:47:41.030Z,2.90
2018-11-27T23:50:10.843Z,2.90
2018-11-27T23:52:39.364Z,2.90
2018-11-27T23:55:09.164Z,2.90
2018-11-27T23:57:38.166Z,2.90
